Time;durP1;ratioP1;P1;durP2;ratioP2;P2;SDS_P1;SDS_P2;PMS_P1;PMS_P2;Temp;Humidity;BMP_temperature;BMP_pressure;BME280_temperature;BME280_humidity;BME280_pressure;Samples;Min_cycle;Max_cycle;Signal;HPM_P1;HPM_P2
2023/01/14 00:00:17;;;;;;;18.80;3.90;;;;;;;;;;5060033;28;20029;-85
2023/01/14 00:02:42;;;;;;;17.23;6.57;;;;;;;;;;5064782;28;20040;-85
2023/01/14 00:05:08;;;;;;;5.28;3.40;;;;;;;;;;5062362;28;20032;-85
2023/01/14 00:07:34;;;;;;;4.13;2.65;;;;;;;;;;5062838;28;20040;-85
2023/01/14 00:09:59;;;;;;;6.90;2.65;;;;;;;;;;5063258;28;20377;-84
2023/01/14 00:12:24;;;;;;;3.85;2.63;;;;;;;;;;5060185;28;20029;-83
2023/01/14 00:14:51;;;;;;;4.07;2.05;;;;;;;;;;5062721;28;20093;-84
2023/01/14 00:17:17;;;;;;;4.28;2.33;;;;;;;;;;5059128;28;20025;-84
2023/01/14 00:19:43;;;;;;;2.67;2.45;;;;;;;;;;5061272;28;20028;-83
2023/01/14 00:22:08;;;;;;;12.88;2.42;;;;;;;;;;5060116;28;20457;-83
2023/01/14 00:24:34;;;;;;;4.03;2.30;;;;;;;;;;5056901;28;20040;-84
2023/01/14 00:26:59;;;;;;;2.33;2.13;;;;;;;;;;5056033;28;20033;-84
2023/01/14 00:29:30;;;;;;;2.42;1.50;;;;;;;;;;5062316;28;20373;-84
2023/01/14 00:31:58;;;;;;;4.32;2.75;;;;;;;;;;5052321;28;20025;-84
2023/01/14 00:34:26;;;;;;;4.28;2.78;;;;;;;;;;5064612;28;20068;-84
2023/01/14 00:37:01;;;;;;;3.72;2.25;;;;;;;;;;5063153;28;20036;-83
2023/01/14 00:39:26;;;;;;;4.95;2.53;;;;;;;;;;5058913;28;20369;-83
2023/01/14 00:41:52;;;;;;;4.40;2.50;;;;;;;;;;5064536;28;20036;-83
2023/01/14 00:44:19;;;;;;;5.10;2.15;;;;;;;;;;5067329;28;20024;-83
2023/01/14 00:46:45;;;;;;;4.50;2.95;;;;;;;;;;5063468;28;20491;-83
2023/01/14 00:49:18;;;;;;;4.60;3.25;;;;;;;;;;5061744;28;20469;-84
2023/01/14 00:51:44;;;;;;;5.95;3.42;;;;;;;;;;5063161;28;20074;-84
2023/01/14 00:54:10;;;;;;;4.68;3.53;;;;;;;;;;5059872;28;20025;-83
2023/01/14 00:56:35;;;;;;;4.20;3.13;;;;;;;;;;5064629;28;20060;-84
2023/01/14 00:59:01;;;;;;;7.97;4.00;;;;;;;;;;5062064;28;20031;-84
2023/01/14 01:01:26;;;;;;;2.67;1.88;;;;;;;;;;5055194;28;20029;-84
2023/01/14 01:03:55;;;;;;;8.00;2.75;;;;;;;;;;5060435;28;20029;-83
2023/01/14 01:06:22;;;;;;;5.03;2.13;;;;;;;;;;5058694;28;20477;-83
2023/01/14 01:08:48;;;;;;;6.35;2.03;;;;;;;;;;5056066;28;20107;-83
2023/01/14 01:11:14;;;;;;;3.40;3.10;;;;;;;;;;5060091;28;20482;-84
2023/01/14 01:13:40;;;;;;;4.38;3.45;;;;;;;;;;5060237;28;20032;-83
2023/01/14 01:16:10;;;;;;;6.30;4.40;;;;;;;;;;5061003;28;20021;-84
2023/01/14 01:18:35;;;;;;;;;;;;;;;;;;5054456;28;20092;-84
2023/01/14 01:21:14;;;;;;;6.80;4.72;;;;;;;;;;5057297;28;20443;-83
2023/01/14 01:23:40;;;;;;;7.03;4.60;;;;;;;;;;5061065;28;20036;-84
2023/01/14 01:26:09;;;;;;;6.88;3.45;;;;;;;;;;5053829;28;20444;-83
2023/01/14 01:28:34;;;;;;;7.88;4.28;;;;;;;;;;5059983;28;20107;-83
2023/01/14 01:31:02;;;;;;;3.70;2.83;;;;;;;;;;5060005;28;20055;-84
2023/01/14 01:33:28;;;;;;;3.75;2.67;;;;;;;;;;5065312;28;20043;-83
2023/01/14 01:36:08;;;;;;;3.28;2.97;;;;;;;;;;5065069;28;20028;-82
2023/01/14 01:38:34;;;;;;;5.70;2.55;;;;;;;;;;5057283;28;20035;-82
2023/01/14 01:41:00;;;;;;;4.22;2.88;;;;;;;;;;5062937;28;20111;-82
2023/01/14 01:43:28;;;;;;;3.78;3.28;;;;;;;;;;5063681;28;20031;-82
2023/01/14 01:45:56;;;;;;;13.70;4.00;;;;;;;;;;5068194;28;20558;-82
2023/01/14 01:48:24;;;;;;;3.42;2.65;;;;;;;;;;5057239;28;20060;-83
2023/01/14 01:51:19;;;;;;;2.28;2.08;;;;;;;;;;5065293;28;20077;-83
2023/01/14 01:53:48;;;;;;;2.42;2.13;;;;;;;;;;5051487;28;20530;-83
2023/01/14 01:56:27;;;;;;;2.38;1.92;;;;;;;;;;5063777;28;20052;-86
2023/01/14 01:58:55;;;;;;;3.80;1.58;;;;;;;;;;5060894;28;20035;-83
2023/01/14 02:01:20;;;;;;;3.03;1.38;;;;;;;;;;5061872;28;20118;-83
2023/01/14 02:03:48;;;;;;;5.53;2.72;;;;;;;;;;5063709;28;20491;-83
2023/01/14 02:06:15;;;;;;;2.45;1.75;;;;;;;;;;5065833;28;20174;-83
2023/01/14 02:08:44;;;;;;;2.92;2.28;;;;;;;;;;5060197;28;20487;-83
2023/01/14 02:11:27;;;;;;;2.00;1.63;;;;;;;;;;5059312;28;20024;-84
2023/01/14 02:14:12;;;;;;;6.43;3.08;;;;;;;;;;5056851;28;20515;-83
2023/01/14 02:17:08;;;;;;;2.50;1.85;;;;;;;;;;5061821;28;20381;-82
2023/01/14 02:19:36;;;;;;;4.90;2.75;;;;;;;;;;5065610;28;20028;-83
2023/01/14 02:22:20;;;;;;;1.73;1.38;;;;;;;;;;5062527;28;20052;-82
2023/01/14 02:25:13;;;;;;;5.32;2.70;;;;;;;;;;5062956;28;20033;-82
2023/01/14 02:27:47;;;;;;;2.35;1.42;;;;;;;;;;5059006;28;20377;-82
2023/01/14 02:30:21;;;;;;;2.60;1.58;;;;;;;;;;5060866;28;20032;-83
2023/01/14 02:33:34;;;;;;;3.90;3.28;;;;;;;;;;5059769;28;20024;-83
2023/01/14 02:36:32;;;;;;;3.28;2.65;;;;;;;;;;5059219;28;20392;-83
2023/01/14 02:39:14;;;;;;;1.95;1.70;;;;;;;;;;5029705;28;20036;-83
2023/01/14 02:44:41;;;;;;;4.60;2.80;;;;;;;;;;5060996;28;20038;-83
2023/01/14 02:47:12;;;;;;;4.55;3.80;;;;;;;;;;5056687;28;20036;-83
2023/01/14 02:49:43;;;;;;;6.43;3.78;;;;;;;;;;5060885;28;20119;-83
2023/01/14 02:52:09;;;;;;;6.40;2.70;;;;;;;;;;5065627;28;20029;-83
2023/01/14 02:54:34;;;;;;;5.10;3.08;;;;;;;;;;5061470;28;20056;-83
2023/01/14 02:57:59;;;;;;;6.35;3.28;;;;;;;;;;5058142;28;20024;-83
2023/01/14 03:01:02;;;;;;;6.40;3.20;;;;;;;;;;4997183;28;20038;-83
2023/01/14 03:03:49;;;;;;;4.40;3.20;;;;;;;;;;4982557;28;20490;-83
2023/01/14 03:06:32;;;;;;;4.13;2.13;;;;;;;;;;5060750;28;20068;-83
2023/01/14 03:09:12;;;;;;;3.42;2.22;;;;;;;;;;5055952;28;20056;-84
2023/01/14 03:11:49;;;;;;;2.97;1.98;;;;;;;;;;5059316;28;20025;-83
2023/01/14 03:14:24;;;;;;;2.88;2.00;;;;;;;;;;5061555;28;20021;-83
2023/01/14 03:17:06;;;;;;;1.65;1.45;;;;;;;;;;5067721;28;20024;-83
2023/01/14 03:19:40;;;;;;;3.90;1.83;;;;;;;;;;5060010;28;20036;-83
2023/01/14 03:22:06;;;;;;;1.38;1.17;;;;;;;;;;5058932;28;20025;-83
2023/01/14 03:24:45;;;;;;;1.05;0.95;;;;;;;;;;5056906;28;20024;-81
2023/01/14 03:27:24;;;;;;;3.80;1.88;;;;;;;;;;5059134;28;20147;-82
2023/01/14 03:29:58;;;;;;;2.25;1.63;;;;;;;;;;5060596;28;20464;-82
2023/01/14 03:32:30;;;;;;;2.13;1.92;;;;;;;;;;5059989;28;20048;-83
2023/01/14 03:35:08;;;;;;;1.75;1.58;;;;;;;;;;5061388;28;20021;-83
2023/01/14 03:37:36;;;;;;;3.53;1.92;;;;;;;;;;5060146;28;20699;-83
2023/01/14 03:40:05;;;;;;;1.98;1.83;;;;;;;;;;5053715;28;20024;-83
2023/01/14 03:42:39;;;;;;;1.67;1.23;;;;;;;;;;5062900;28;20040;-84
2023/01/14 03:45:12;;;;;;;1.83;1.25;;;;;;;;;;5062624;28;20028;-84
2023/01/14 03:47:39;;;;;;;1.08;0.98;;;;;;;;;;5060596;28;20353;-83
2023/01/14 03:50:30;;;;;;;1.15;0.90;;;;;;;;;;5064218;28;20032;-85
2023/01/14 03:53:22;;;;;;;1.17;1.02;;;;;;;;;;5056913;28;20079;-85
2023/01/14 03:55:57;;;;;;;2.65;1.42;;;;;;;;;;5060681;28;20705;-85
2023/01/14 03:58:48;;;;;;;1.45;1.35;;;;;;;;;;5060086;28;20100;-84
2023/01/14 04:01:17;;;;;;;2.47;1.73;;;;;;;;;;5059861;28;20377;-84
2023/01/14 04:03:43;;;;;;;2.53;1.75;;;;;;;;;;5063522;28;20062;-85
2023/01/14 04:06:11;;;;;;;1.83;1.63;;;;;;;;;;5060861;28;20021;-85
2023/01/14 04:08:36;;;;;;;1.45;1.00;;;;;;;;;;5065311;28;20024;-84
2023/01/14 04:11:02;;;;;;;1.40;1.20;;;;;;;;;;5051698;28;20028;-85
2023/01/14 04:16:13;;;;;;;1.38;1.15;;;;;;;;;;5055951;28;20504;-84
2023/01/14 04:18:39;;;;;;;1.75;1.63;;;;;;;;;;5061985;28;20020;-85
2023/01/14 04:21:04;;;;;;;4.25;2.33;;;;;;;;;;5062659;28;20033;-85
2023/01/14 04:23:30;;;;;;;4.70;3.10;;;;;;;;;;5061910;28;20017;-82
2023/01/14 04:25:59;;;;;;;6.07;3.20;;;;;;;;;;5060575;28;20025;-83
2023/01/14 04:28:25;;;;;;;4.65;2.35;;;;;;;;;;5053828;28;20063;-83
2023/01/14 04:30:51;;;;;;;2.60;2.40;;;;;;;;;;5059578;28;20060;-83
2023/01/14 04:33:17;;;;;;;3.50;2.70;;;;;;;;;;5056137;28;20453;-84
2023/01/14 04:35:48;;;;;;;6.97;2.80;;;;;;;;;;5052386;28;20028;-83
2023/01/14 04:38:14;;;;;;;1.42;1.33;;;;;;;;;;5059614;28;20025;-84
2023/01/14 04:40:39;;;;;;;3.00;1.65;;;;;;;;;;5063001;28;20031;-83
2023/01/14 04:43:04;;;;;;;2.55;2.10;;;;;;;;;;5056659;28;20085;-84
2023/01/14 04:45:30;;;;;;;2.45;1.67;;;;;;;;;;5059105;28;20122;-82
2023/01/14 04:47:55;;;;;;;2.28;1.95;;;;;;;;;;5057288;28;20029;-82
2023/01/14 04:50:41;;;;;;;1.83;1.73;;;;;;;;;;5057666;28;20035;-83
2023/01/14 04:53:12;;;;;;;2.22;1.23;;;;;;;;;;5049110;28;20021;-83
2023/01/14 04:55:40;;;;;;;0.75;0.75;;;;;;;;;;5063230;28;20040;-83
2023/01/14 04:58:08;;;;;;;1.83;1.58;;;;;;;;;;5056993;28;20516;-84
2023/01/14 05:00:34;;;;;;;2.85;1.85;;;;;;;;;;5066870;28;20056;-83
2023/01/14 05:03:04;;;;;;;1.55;1.10;;;;;;;;;;5064047;28;20028;-83
2023/01/14 05:05:30;;;;;;;1.33;1.10;;;;;;;;;;5059143;28;20040;-85
2023/01/14 05:07:56;;;;;;;1.55;0.90;;;;;;;;;;5058335;28;20025;-85
2023/01/14 05:10:22;;;;;;;2.47;1.92;;;;;;;;;;5054126;28;20021;-84
2023/01/14 05:12:56;;;;;;;1.30;1.20;;;;;;;;;;5060031;28;20028;-86
2023/01/14 05:15:28;;;;;;;4.57;1.92;;;;;;;;;;5065212;28;20029;-85
2023/01/14 05:17:53;;;;;;;4.45;2.92;;;;;;;;;;5056537;28;20025;-81
2023/01/14 05:20:20;;;;;;;4.13;2.28;;;;;;;;;;5061672;28;20107;-83
2023/01/14 05:22:45;;;;;;;8.43;1.40;;;;;;;;;;5066314;28;20080;-82
2023/01/14 05:25:11;;;;;;;3.65;1.45;;;;;;;;;;5062391;28;20024;-81
2023/01/14 05:27:36;;;;;;;1.08;0.82;;;;;;;;;;5064983;28;20029;-85
2023/01/14 05:30:03;;;;;;;1.45;1.15;;;;;;;;;;5067786;28;20460;-83
2023/01/14 05:32:28;;;;;;;1.15;1.05;;;;;;;;;;5065371;28;20476;-83
2023/01/14 05:34:54;;;;;;;0.70;0.70;;;;;;;;;;5057515;28;20067;-83
2023/01/14 05:37:19;;;;;;;1.27;1.10;;;;;;;;;;5058090;28;20032;-84
2023/01/14 05:39:45;;;;;;;1.33;1.17;;;;;;;;;;5061525;28;20025;-85
2023/01/14 05:47:38;;;;;;;1.85;1.52;;;;;;;;;;5065477;28;20127;-83
2023/01/14 05:50:04;;;;;;;0.98;0.85;;;;;;;;;;5056912;28;20108;-84
2023/01/14 05:52:29;;;;;;;1.80;1.40;;;;;;;;;;5066843;28;20045;-83
2023/01/14 05:54:54;;;;;;;1.00;0.90;;;;;;;;;;5057502;28;20110;-84
2023/01/14 05:57:20;;;;;;;1.85;1.35;;;;;;;;;;5059564;28;20036;-89
2023/01/14 05:59:45;;;;;;;1.30;1.20;;;;;;;;;;5059295;28;20472;-84
2023/01/14 06:07:39;;;;;;;1.80;1.58;;;;;;;;;;5059488;28;20094;-89
2023/01/14 06:10:04;;;;;;;2.85;1.70;;;;;;;;;;5060190;28;20024;-88
2023/01/14 06:12:57;;;;;;;1.75;1.27;;;;;;;;;;5063286;28;20043;-85
2023/01/14 06:15:21;;;;;;;2.35;1.42;;;;;;;;;;5062202;28;20082;-89
2023/01/14 06:17:56;;;;;;;1.85;1.73;;;;;;;;;;5056396;28;20021;-86
2023/01/14 06:20:22;;;;;;;2.80;1.48;;;;;;;;;;5062824;28;20024;-88
2023/01/14 06:22:47;;;;;;;3.13;1.83;;;;;;;;;;5055027;28;20039;-86
2023/01/14 06:25:13;;;;;;;3.95;2.40;;;;;;;;;;5061084;28;20446;-87
2023/01/14 06:27:38;;;;;;;2.38;2.10;;;;;;;;;;5057960;28;20029;-87
2023/01/14 06:30:04;;;;;;;2.55;1.70;;;;;;;;;;5065120;28;20051;-86
2023/01/14 06:32:29;;;;;;;2.83;1.48;;;;;;;;;;5061630;28;20032;-86
2023/01/14 06:34:55;;;;;;;3.70;1.50;;;;;;;;;;5061991;28;20025;-85
2023/01/14 06:37:20;;;;;;;1.80;1.17;;;;;;;;;;5064171;28;20024;-88
2023/01/14 06:39:46;;;;;;;1.40;1.30;;;;;;;;;;5059624;28;20086;-89
2023/01/14 06:42:11;;;;;;;2.58;1.73;;;;;;;;;;5063240;28;20029;-86
2023/01/14 06:44:36;;;;;;;1.60;1.30;;;;;;;;;;5056241;28;20492;-90
2023/01/14 06:47:02;;;;;;;2.30;1.75;;;;;;;;;;5059137;28;20469;-86
2023/01/14 06:49:30;;;;;;;2.22;1.45;;;;;;;;;;5065076;28;20039;-88
2023/01/14 06:51:55;;;;;;;2.45;1.48;;;;;;;;;;5060402;28;20053;-88
2023/01/14 06:54:21;;;;;;;1.48;1.38;;;;;;;;;;5060695;28;20055;-89
2023/01/14 06:56:46;;;;;;;1.50;1.10;;;;;;;;;;5065287;28;20031;-86
2023/01/14 06:59:11;;;;;;;1.90;1.58;;;;;;;;;;5060990;28;20031;-87
2023/01/14 07:01:37;;;;;;;1.55;1.45;;;;;;;;;;5061495;28;20028;-87
2023/01/14 07:04:02;;;;;;;2.20;1.48;;;;;;;;;;5061351;28;20028;-86
2023/01/14 07:06:28;;;;;;;2.47;2.28;;;;;;;;;;5059183;28;20131;-89
2023/01/14 07:08:53;;;;;;;1.98;1.80;;;;;;;;;;5061714;28;20040;-89
2023/01/14 07:11:19;;;;;;;3.00;2.22;;;;;;;;;;5060263;28;20024;-87
2023/01/14 07:13:44;;;;;;;4.97;2.85;;;;;;;;;;5051487;28;20064;-87
2023/01/14 07:16:09;;;;;;;3.72;2.67;;;;;;;;;;5051065;28;20029;-89
2023/01/14 07:18:35;;;;;;;6.88;2.85;;;;;;;;;;5059433;28;20439;-92
2023/01/14 07:21:00;;;;;;;5.45;3.78;;;;;;;;;;5050914;28;20040;-89
2023/01/14 07:23:26;;;;;;;7.70;4.68;;;;;;;;;;5060074;28;20024;-89
2023/01/14 07:25:55;;;;;;;3.40;2.67;;;;;;;;;;5058557;28;20024;-84
2023/01/14 07:28:22;;;;;;;10.95;5.85;;;;;;;;;;5058101;28;20047;-87
2023/01/14 07:30:48;;;;;;;10.15;7.55;;;;;;;;;;5060099;28;20110;-86
2023/01/14 07:33:13;;;;;;;4.70;2.80;;;;;;;;;;5048391;28;20471;-86
2023/01/14 07:35:39;;;;;;;5.60;4.97;;;;;;;;;;5052573;28;20033;-85
2023/01/14 07:38:04;;;;;;;7.95;4.28;;;;;;;;;;5062313;28;20020;-86
2023/01/14 07:40:30;;;;;;;8.23;6.65;;;;;;;;;;5058852;28;20033;-86
2023/01/14 07:43:00;;;;;;;9.48;7.25;;;;;;;;;;5060004;28;20056;-84
2023/01/14 07:45:27;;;;;;;12.40;6.03;;;;;;;;;;5054690;28;20473;-86
2023/01/14 07:47:52;;;;;;;11.00;6.13;;;;;;;;;;5056864;28;20036;-85
2023/01/14 07:50:21;;;;;;;7.43;5.47;;;;;;;;;;5055209;28;20381;-85
2023/01/14 07:52:58;;;;;;;11.05;7.22;;;;;;;;;;5054275;28;20028;-85
2023/01/14 07:55:24;;;;;;;9.43;6.57;;;;;;;;;;5052890;28;20041;-86
2023/01/14 07:57:50;;;;;;;11.95;7.60;;;;;;;;;;5060304;28;20052;-86
2023/01/14 08:00:18;;;;;;;11.27;6.15;;;;;;;;;;5060184;28;20045;-87
2023/01/14 08:02:43;;;;;;;12.20;6.63;;;;;;;;;;5058133;28;20439;-85
2023/01/14 08:05:09;;;;;;;12.35;7.25;;;;;;;;;;5063278;28;20020;-86
2023/01/14 08:07:34;;;;;;;8.63;6.40;;;;;;;;;;5051676;28;20044;-87
2023/01/14 08:10:00;;;;;;;9.68;5.68;;;;;;;;;;5060329;28;20025;-84
2023/01/14 08:12:25;;;;;;;5.57;4.22;;;;;;;;;;5060032;28;20389;-83
2023/01/14 08:14:50;;;;;;;6.82;4.47;;;;;;;;;;5055121;28;20072;-85
2023/01/14 08:17:16;;;;;;;11.57;5.55;;;;;;;;;;5056615;28;20040;-83
2023/01/14 08:19:43;;;;;;;5.93;3.75;;;;;;;;;;5061411;28;20036;-82
2023/01/14 08:22:09;;;;;;;2.90;2.33;;;;;;;;;;5054281;28;20028;-85
2023/01/14 08:24:34;;;;;;;3.10;2.10;;;;;;;;;;5050088;28;20108;-86
2023/01/14 08:26:59;;;;;;;3.35;2.15;;;;;;;;;;5049524;28;20025;-85
2023/01/14 08:29:25;;;;;;;2.72;2.03;;;;;;;;;;5057003;28;20120;-87
2023/01/14 08:31:51;;;;;;;5.03;2.22;;;;;;;;;;5055678;28;20022;-84
2023/01/14 08:34:17;;;;;;;3.15;2.85;;;;;;;;;;5053560;28;20028;-82
2023/01/14 08:36:44;;;;;;;2.05;1.67;;;;;;;;;;5049712;28;20147;-85
2023/01/14 08:39:10;;;;;;;2.85;2.08;;;;;;;;;;5057781;28;20017;-84
2023/01/14 08:41:36;;;;;;;3.25;2.17;;;;;;;;;;5056920;28;20040;-83
2023/01/14 08:44:01;;;;;;;4.68;2.70;;;;;;;;;;5067712;28;20078;-84
2023/01/14 08:46:26;;;;;;;4.55;2.60;;;;;;;;;;5056360;28;20029;-85
2023/01/14 08:48:52;;;;;;;1.73;1.63;;;;;;;;;;5064681;28;20100;-83
2023/01/14 08:51:18;;;;;;;4.53;1.90;;;;;;;;;;5057498;28;20033;-84
2023/01/14 08:53:43;;;;;;;3.72;2.17;;;;;;;;;;5059887;28;20028;-85
2023/01/14 08:56:15;;;;;;;2.85;1.70;;;;;;;;;;5055470;28;20057;-87
2023/01/14 08:58:41;;;;;;;4.38;2.70;;;;;;;;;;5055763;28;20028;-85
2023/01/14 09:01:08;;;;;;;4.45;2.95;;;;;;;;;;5065502;28;20033;-84
2023/01/14 09:03:35;;;;;;;1.98;1.70;;;;;;;;;;5065008;28;20118;-87
2023/01/14 09:06:06;;;;;;;3.35;2.55;;;;;;;;;;5058464;28;20360;-87
2023/01/14 09:17:06;;;;;;;4.85;3.10;;;;;;;;;;5064344;28;20039;-84
2023/01/14 09:19:48;;;;;;;3.03;2.58;;;;;;;;;;5060106;28;20033;-84
2023/01/14 09:22:17;;;;;;;2.80;1.88;;;;;;;;;;5056945;28;20131;-84
2023/01/14 09:24:43;;;;;;;4.13;1.63;;;;;;;;;;5061760;28;20095;-85
2023/01/14 09:27:08;;;;;;;2.55;1.63;;;;;;;;;;5064406;28;20052;-82
2023/01/14 09:29:33;;;;;;;3.53;2.55;;;;;;;;;;5063365;28;20029;-82
2023/01/14 09:31:59;;;;;;;3.35;1.80;;;;;;;;;;5057947;28;20107;-85
2023/01/14 09:34:25;;;;;;;3.90;2.45;;;;;;;;;;5060373;28;21335;-83
2023/01/14 09:36:50;;;;;;;3.50;1.67;;;;;;;;;;5059504;28;20472;-85
2023/01/14 09:39:16;;;;;;;2.97;2.13;;;;;;;;;;5063969;28;20376;-83
2023/01/14 09:41:51;;;;;;;3.67;2.05;;;;;;;;;;5058435;28;20438;-85
2023/01/14 09:44:21;;;;;;;1.50;1.40;;;;;;;;;;5060145;28;20032;-87
2023/01/14 09:46:51;;;;;;;5.20;2.47;;;;;;;;;;5059435;28;20031;-88
2023/01/14 09:49:21;;;;;;;3.00;2.25;;;;;;;;;;5055053;28;20473;-84
2023/01/14 09:52:14;;;;;;;3.20;1.95;;;;;;;;;;5056162;28;20490;-84
2023/01/14 09:54:48;;;;;;;1.92;1.52;;;;;;;;;;5052191;28;20041;-86
2023/01/14 09:57:32;;;;;;;2.45;1.88;;;;;;;;;;5047510;28;20112;-83
2023/01/14 10:00:00;;;;;;;2.08;1.35;;;;;;;;;;5057553;28;20397;-85
2023/01/14 10:02:35;;;;;;;4.05;1.83;;;;;;;;;;5064721;28;20039;-87
2023/01/14 10:05:22;;;;;;;2.58;1.70;;;;;;;;;;5056514;28;20103;-84
2023/01/14 10:07:49;;;;;;;2.05;1.45;;;;;;;;;;5061372;28;20021;-84
2023/01/14 10:10:26;;;;;;;3.28;2.00;;;;;;;;;;5061075;28;20029;-88
2023/01/14 10:12:54;;;;;;;2.55;1.90;;;;;;;;;;5058311;28;20102;-88
2023/01/14 10:15:45;;;;;;;2.08;1.63;;;;;;;;;;5058066;28;20104;-86
2023/01/14 10:18:14;;;;;;;5.40;1.65;;;;;;;;;;5064308;28;20452;-87
2023/01/14 10:21:04;;;;;;;2.33;1.38;;;;;;;;;;5056095;28;20128;-84
2023/01/14 10:23:39;;;;;;;3.00;1.90;;;;;;;;;;5059569;28;20024;-85
2023/01/14 10:26:13;;;;;;;2.88;1.58;;;;;;;;;;5059556;28;20029;-87
2023/01/14 10:28:40;;;;;;;1.30;1.20;;;;;;;;;;5061241;28;20036;-84
2023/01/14 10:31:06;;;;;;;2.38;1.75;;;;;;;;;;5062296;28;20416;-85
2023/01/14 10:33:31;;;;;;;4.00;2.15;;;;;;;;;;5056473;28;20029;-91
2023/01/14 10:36:00;;;;;;;2.60;1.85;;;;;;;;;;5058114;28;20062;-83
2023/01/14 10:38:27;;;;;;;1.63;1.52;;;;;;;;;;5057505;28;20428;-84
2023/01/14 10:40:57;;;;;;;2.40;2.20;;;;;;;;;;5060503;28;20029;-84
2023/01/14 10:43:29;;;;;;;2.00;1.70;;;;;;;;;;5055978;28;20025;-84
2023/01/14 10:45:54;;;;;;;4.35;2.75;;;;;;;;;;5055247;28;20473;-84
2023/01/14 10:48:21;;;;;;;5.72;2.58;;;;;;;;;;5060134;28;20039;-84
2023/01/14 10:50:47;;;;;;;5.75;2.72;;;;;;;;;;5058459;28;20361;-83
2023/01/14 10:53:23;;;;;;;2.53;1.60;;;;;;;;;;5056055;28;20116;-85
2023/01/14 10:55:53;;;;;;;3.45;2.00;;;;;;;;;;5056120;28;20049;-82
2023/01/14 10:58:30;;;;;;;2.45;1.58;;;;;;;;;;5052186;28;20031;-85
2023/01/14 11:01:14;;;;;;;4.00;2.17;;;;;;;;;;5055778;28;20041;-83
2023/01/14 11:03:42;;;;;;;2.00;1.52;;;;;;;;;;5062884;28;20384;-88
2023/01/14 11:06:13;;;;;;;3.15;2.83;;;;;;;;;;5052985;28;20078;-84
2023/01/14 11:08:49;;;;;;;4.63;1.88;;;;;;;;;;5064116;28;20746;-86
2023/01/14 11:11:36;;;;;;;4.22;1.98;;;;;;;;;;5057125;28;20108;-85
2023/01/14 11:14:17;;;;;;;2.38;1.60;;;;;;;;;;5053718;28;20017;-87
2023/01/14 11:16:43;;;;;;;2.08;1.88;;;;;;;;;;5060688;28;20515;-83
2023/01/14 11:19:14;;;;;;;2.75;2.13;;;;;;;;;;5060110;28;20107;-88
2023/01/14 11:21:42;;;;;;;1.65;1.30;;;;;;;;;;5060521;28;20508;-84
2023/01/14 11:24:29;;;;;;;1.48;1.27;;;;;;;;;;5056759;28;20475;-88
2023/01/14 11:27:12;;;;;;;1.83;1.60;;;;;;;;;;5060363;28;20373;-83
2023/01/14 11:29:47;;;;;;;3.05;2.15;;;;;;;;;;5052543;28;20035;-86
2023/01/14 11:32:18;;;;;;;4.82;2.17;;;;;;;;;;5056380;28;20615;-84
2023/01/14 11:35:15;;;;;;;5.65;2.92;;;;;;;;;;5052055;28;20413;-86
2023/01/14 11:37:44;;;;;;;3.53;2.60;;;;;;;;;;5057006;28;20033;-85
2023/01/14 11:40:20;;;;;;;3.38;2.90;;;;;;;;;;5061208;28;20104;-86
2023/01/14 11:42:46;;;;;;;4.85;2.63;;;;;;;;;;5063380;28;20036;-83
2023/01/14 11:45:12;;;;;;;6.90;3.00;;;;;;;;;;5053913;28;20103;-85
2023/01/14 11:47:54;;;;;;;6.20;4.13;;;;;;;;;;5058392;28;20161;-85
2023/01/14 11:50:31;;;;;;;8.75;3.70;;;;;;;;;;5059176;28;20025;-88
2023/01/14 11:52:56;;;;;;;6.88;4.18;;;;;;;;;;5055311;28;20038;-85
2023/01/14 11:55:22;;;;;;;8.68;5.60;;;;;;;;;;5057005;28;20521;-86
2023/01/14 11:57:48;;;;;;;8.95;6.05;;;;;;;;;;5059372;28;20465;-85
2023/01/14 12:00:13;;;;;;;7.93;4.43;;;;;;;;;;5057401;28;20028;-85
2023/01/14 12:02:45;;;;;;;7.38;6.00;;;;;;;;;;5066073;28;20711;-84
2023/01/14 12:05:16;;;;;;;6.57;3.88;;;;;;;;;;5059471;28;20029;-86
2023/01/14 12:07:44;;;;;;;8.32;5.32;;;;;;;;;;5058849;28;20133;-85
2023/01/14 12:10:23;;;;;;;6.15;4.57;;;;;;;;;;5057962;28;20025;-85
2023/01/14 12:18:43;;;;;;;7.15;4.72;;;;;;;;;;5062782;28;20075;-85
2023/01/14 12:21:08;;;;;;;12.70;5.32;;;;;;;;;;5050727;28;20095;-84
2023/01/14 12:23:42;;;;;;;7.65;4.65;;;;;;;;;;5055356;28;20743;-86
2023/01/14 12:26:17;;;;;;;5.38;3.97;;;;;;;;;;5058168;28;20029;-85
2023/01/14 12:28:47;;;;;;;7.13;4.07;;;;;;;;;;5057975;28;20037;-85
2023/01/14 12:31:38;;;;;;;9.38;6.43;;;;;;;;;;5055439;28;20025;-84
2023/01/14 12:34:17;;;;;;;5.53;3.70;;;;;;;;;;5052045;28;20531;-84
2023/01/14 12:36:55;;;;;;;7.05;3.78;;;;;;;;;;5060176;28;20021;-87
2023/01/14 12:45:50;;;;;;;6.05;3.28;;;;;;;;;;5047594;28;20098;-87
2023/01/14 12:48:17;;;;;;;4.28;2.17;;;;;;;;;;5053848;28;20029;-86
2023/01/14 12:51:24;;;;;;;4.88;2.78;;;;;;;;;;5063409;28;20032;-86
2023/01/14 12:53:53;;;;;;;4.93;3.08;;;;;;;;;;5062358;28;20036;-87
2023/01/14 12:56:48;;;;;;;4.40;2.67;;;;;;;;;;5053312;28;20127;-85
2023/01/14 12:59:38;;;;;;;2.47;1.40;;;;;;;;;;5063834;28;20039;-85
2023/01/14 13:02:16;;;;;;;4.18;2.50;;;;;;;;;;5057393;28;20037;-86
2023/01/14 13:04:47;;;;;;;1.75;1.42;;;;;;;;;;5051852;28;20496;-85
2023/01/14 13:07:34;;;;;;;3.72;2.05;;;;;;;;;;5054708;28;20374;-88
2023/01/14 13:10:03;;;;;;;3.00;1.50;;;;;;;;;;5064991;28;20055;-88
2023/01/14 13:12:35;;;;;;;2.10;1.42;;;;;;;;;;5052991;28;20112;-86
2023/01/14 13:15:06;;;;;;;2.72;2.10;;;;;;;;;;5064003;28;20028;-85
2023/01/14 13:17:38;;;;;;;4.55;2.47;;;;;;;;;;5051598;28;20037;-87
2023/01/14 13:20:18;;;;;;;7.35;4.65;;;;;;;;;;5058465;28;20523;-87
2023/01/14 13:22:52;;;;;;;6.18;3.28;;;;;;;;;;5055042;28;20043;-89
2023/01/14 13:25:20;;;;;;;3.80;3.05;;;;;;;;;;5058446;28;20020;-85
2023/01/14 13:27:46;;;;;;;3.30;2.63;;;;;;;;;;5054257;28;20033;-87
2023/01/14 13:30:18;;;;;;;2.58;1.92;;;;;;;;;;5056131;28;20044;-88
2023/01/14 13:32:58;;;;;;;6.82;2.85;;;;;;;;;;5062921;28;20033;-88
2023/01/14 13:35:24;;;;;;;4.97;3.45;;;;;;;;;;5062784;28;20078;-87
2023/01/14 13:37:50;;;;;;;2.95;2.38;;;;;;;;;;5066948;28;20032;-87
2023/01/14 13:40:18;;;;;;;4.35;2.97;;;;;;;;;;5059465;28;20033;-87
2023/01/14 13:42:45;;;;;;;5.53;3.45;;;;;;;;;;5063859;28;20024;-89
2023/01/14 13:45:28;;;;;;;1.55;1.33;;;;;;;;;;5059955;28;20052;-88
2023/01/14 13:47:56;;;;;;;2.72;2.50;;;;;;;;;;5067138;28;20396;-86
2023/01/14 13:50:23;;;;;;;2.63;1.55;;;;;;;;;;5064722;28;20021;-85
2023/01/14 13:53:04;;;;;;;4.30;2.47;;;;;;;;;;5062544;28;20033;-85
2023/01/14 13:55:35;;;;;;;7.95;4.15;;;;;;;;;;5058230;28;20052;-84
2023/01/14 13:58:06;;;;;;;7.13;5.35;;;;;;;;;;5060782;28;20078;-85
2023/01/14 14:00:38;;;;;;;2.63;2.03;;;;;;;;;;5062527;28;20021;-86
2023/01/14 14:03:35;;;;;;;5.63;3.47;;;;;;;;;;5055149;28;20480;-86
2023/01/14 14:06:19;;;;;;;2.45;1.52;;;;;;;;;;5062942;28;20036;-85
2023/01/14 14:08:54;;;;;;;3.58;3.28;;;;;;;;;;5060864;28;20029;-87
2023/01/14 14:11:22;;;;;;;2.72;2.50;;;;;;;;;;5055345;28;20020;-84
2023/01/14 14:14:06;;;;;;;5.57;3.40;;;;;;;;;;5063416;28;20028;-86
2023/01/14 14:16:49;;;;;;;5.47;3.92;;;;;;;;;;5053949;28;20392;-85
2023/01/14 14:19:35;;;;;;;7.25;3.00;;;;;;;;;;5059675;28;20067;-84
2023/01/14 14:22:04;;;;;;;3.80;3.40;;;;;;;;;;5052359;28;20029;-86
2023/01/14 14:24:50;;;;;;;6.45;3.55;;;;;;;;;;5059213;28;20028;-88
2023/01/14 14:27:39;;;;;;;6.03;4.22;;;;;;;;;;5049389;28;20120;-86
2023/01/14 14:30:15;;;;;;;5.68;3.13;;;;;;;;;;5053178;28;20488;-84
2023/01/14 14:32:42;;;;;;;3.35;2.40;;;;;;;;;;5060133;28;20477;-86
2023/01/14 14:35:17;;;;;;;7.15;3.92;;;;;;;;;;5052062;28;20026;-85
2023/01/14 14:37:55;;;;;;;6.18;2.75;;;;;;;;;;5059838;28;20025;-86
2023/01/14 14:40:29;;;;;;;7.53;3.50;;;;;;;;;;5052911;28;20021;-88
2023/01/14 14:42:56;;;;;;;3.30;2.85;;;;;;;;;;5064001;28;20024;-84
2023/01/14 14:45:29;;;;;;;6.47;3.60;;;;;;;;;;5057746;28;20048;-85
2023/01/14 14:47:55;;;;;;;6.40;4.18;;;;;;;;;;5055010;28;20388;-88
2023/01/14 14:50:32;;;;;;;4.38;2.78;;;;;;;;;;5060763;28;20108;-90
2023/01/14 14:52:58;;;;;;;2.65;2.15;;;;;;;;;;5057870;28;20028;-89
2023/01/14 14:55:27;;;;;;;2.65;2.03;;;;;;;;;;5060396;28;20055;-87
2023/01/14 14:57:53;;;;;;;3.22;2.03;;;;;;;;;;5064790;28;20024;-86
2023/01/14 15:00:21;;;;;;;2.28;1.73;;;;;;;;;;5063248;28;20032;-88
2023/01/14 15:02:52;;;;;;;4.47;2.80;;;;;;;;;;5056669;28;20085;-86
2023/01/14 15:05:29;;;;;;;2.28;2.08;;;;;;;;;;5055309;28;20495;-87
2023/01/14 15:08:02;;;;;;;4.30;2.92;;;;;;;;;;5059819;28;20024;-88
2023/01/14 15:10:28;;;;;;;2.75;1.73;;;;;;;;;;5054122;28;20021;-85
2023/01/14 15:12:54;;;;;;;1.85;1.50;;;;;;;;;;5062626;28;20025;-86
2023/01/14 15:15:24;;;;;;;3.53;2.28;;;;;;;;;;5070350;28;20434;-87
2023/01/14 15:17:58;;;;;;;3.33;2.70;;;;;;;;;;5058538;28;20031;-87
2023/01/14 15:20:23;;;;;;;4.18;2.60;;;;;;;;;;5064520;28;20036;-87
2023/01/14 15:22:51;;;;;;;3.17;2.17;;;;;;;;;;5060363;28;20073;-86
2023/01/14 15:25:18;;;;;;;5.20;3.33;;;;;;;;;;5056924;28;20025;-84
2023/01/14 15:27:46;;;;;;;5.88;2.95;;;;;;;;;;5055031;28;20048;-87
2023/01/14 15:30:26;;;;;;;6.25;3.30;;;;;;;;;;5061935;28;20094;-86
2023/01/14 15:32:55;;;;;;;4.10;3.20;;;;;;;;;;5057088;28;20025;-87
2023/01/14 15:35:28;;;;;;;7.50;4.05;;;;;;;;;;5057597;28;20037;-88
2023/01/14 15:38:06;;;;;;;2.92;2.50;;;;;;;;;;5058171;28;20104;-85
2023/01/14 15:40:37;;;;;;;2.95;2.65;;;;;;;;;;5061665;28;20175;-85
2023/01/14 15:43:04;;;;;;;6.97;2.67;;;;;;;;;;5056362;28;20508;-85